Time;durP1;ratioP1;P1;durP2;ratioP2;P2;SDS_P1;SDS_P2;PMS_P1;PMS_P2;Temp;Humidity;BMP_temperature;BMP_pressure;BME280_temperature;BME280_humidity;BME280_pressure;Samples;Min_cycle;Max_cycle;Signal;HPM_P1;HPM_P2
2023/07/22 00:01:54;;;;;;;;;;;;;;;16.57;54.45;100733.69;4999816;28;1159;-56
2023/07/22 00:04:20;;;;;;;;;;;;;;;16.44;54.57;100728.75;4999297;28;1059;-56
2023/07/22 00:06:45;;;;;;;;;;;;;;;16.47;54.55;100730.13;4998879;28;890;-56
2023/07/22 00:09:11;;;;;;;;;;;;;;;16.44;54.52;100734.25;4998655;28;1909;-56
2023/07/22 00:11:36;;;;;;;;;;;;;;;16.45;54.79;100724.09;4999420;28;1179;-56
2023/07/22 00:14:02;;;;;;;;;;;;;;;16.49;54.64;100722.44;4999560;28;1491;-56
2023/07/22 00:16:29;;;;;;;;;;;;;;;16.48;54.70;100720.78;4999058;28;1187;-58
2023/07/22 00:18:54;;;;;;;;;;;;;;;16.45;54.65;100718.59;4998887;28;1092;-56
2023/07/22 00:21:20;;;;;;;;;;;;;;;16.47;54.72;100716.41;4999239;28;1191;-56
2023/07/22 00:23:46;;;;;;;;;;;;;;;16.41;54.81;100708.16;4999086;28;1146;-55
2023/07/22 00:26:11;;;;;;;;;;;;;;;16.41;54.92;100699.09;4999296;28;1151;-56
2023/07/22 00:28:37;;;;;;;;;;;;;;;16.40;54.86;100698.28;4998818;28;1973;-56
2023/07/22 00:31:03;;;;;;;;;;;;;;;16.31;54.93;100697.16;4998817;28;987;-56
2023/07/22 00:33:28;;;;;;;;;;;;;;;16.44;54.64;100701.31;4998477;28;1075;-63
2023/07/22 00:35:54;;;;;;;;;;;;;;;16.40;54.84;100702.97;4997449;28;1587;-56
2023/07/22 00:38:19;;;;;;;;;;;;;;;16.34;54.89;100690.31;4998654;28;1020;-56
2023/07/22 00:40:45;;;;;;;;;;;;;;;16.39;54.89;100687.59;4998726;28;1051;-55
2023/07/22 00:43:10;;;;;;;;;;;;;;;16.40;54.75;100684.56;4998175;28;1165;-55
2023/07/22 00:45:36;;;;;;;;;;;;;;;16.40;54.54;100673.59;4993423;28;1566;-55
2023/07/22 00:48:02;;;;;;;;;;;;;;;16.41;54.58;100677.13;4998512;28;1906;-55
2023/07/22 00:50:27;;;;;;;;;;;;;;;16.43;54.52;100675.78;4997380;28;1412;-56
2023/07/22 00:52:53;;;;;;;;;;;;;;;16.40;54.48;100664.53;4996634;28;1155;-56
2023/07/22 00:55:18;;;;;;;;;;;;;;;16.37;54.77;100662.34;4996649;28;941;-56
2023/07/22 00:57:44;;;;;;;;;;;;;;;16.36;54.63;100672.47;4998479;28;1052;-56
2023/07/22 01:00:13;;;;;;;;;;;;;;;16.36;54.86;100672.47;4996285;28;1199;-56
2023/07/22 01:02:39;;;;;;;;;;;;;;;16.38;54.82;100672.22;4998108;28;1064;-56
2023/07/22 01:05:05;;;;;;;;;;;;;;;16.36;54.67;100669.75;4998434;28;1040;-56
2023/07/22 01:07:31;;;;;;;;;;;;;;;16.36;54.79;100672.47;4997738;28;1981;-55
2023/07/22 01:09:56;;;;;;;;;;;;;;;16.39;54.71;100663.69;4996916;28;1278;-55
2023/07/22 01:12:22;;;;;;;;;;;;;;;16.35;54.76;100657.09;4998049;28;1223;-56
2023/07/22 01:14:47;;;;;;;;;;;;;;;17.48;56.38;100658.78;4998116;28;1099;-55
2023/07/22 01:17:13;;;;;;;;;;;;;;;17.08;56.83;100655.94;4996797;28;1155;-56
2023/07/22 01:19:38;;;;;;;;;;;;;;;16.89;56.42;100663.94;4996363;28;950;-55
2023/07/22 01:22:10;;;;;;;;;;;;;;;16.83;56.05;100659.53;4980197;28;1076;-56
2023/07/22 01:24:36;;;;;;;;;;;;;;;16.79;55.66;100654.88;4998030;28;1194;-55
2023/07/22 01:27:04;;;;;;;;;;;;;;;16.70;55.65;100671.91;4997897;28;1080;-56
2023/07/22 01:29:30;;;;;;;;;;;;;;;16.71;55.21;100650.78;4997790;28;1988;-53
2023/07/22 01:31:55;;;;;;;;;;;;;;;16.68;55.23;100651.34;4996104;28;1104;-55
2023/07/22 01:34:21;;;;;;;;;;;;;;;16.67;55.19;100641.44;4998166;28;1206;-55
2023/07/22 01:36:50;;;;;;;;;;;;;;;16.68;54.96;100652.16;4997462;28;1152;-55
2023/07/22 01:39:16;;;;;;;;;;;;;;;16.68;54.97;100641.16;4997342;28;1075;-57
2023/07/22 01:41:41;;;;;;;;;;;;;;;16.55;54.93;100638.97;4997645;28;1156;-55
2023/07/22 01:44:07;;;;;;;;;;;;;;;16.57;54.99;100634.06;4996249;28;1129;-56
2023/07/22 01:46:33;;;;;;;;;;;;;;;16.62;54.90;100634.06;4995933;28;1465;-56
2023/07/22 01:48:59;;;;;;;;;;;;;;;16.57;55.00;100620.31;4991881;28;1965;-56
2023/07/22 01:51:25;;;;;;;;;;;;;;;16.53;54.80;100621.97;4996706;28;1087;-57
2023/07/22 01:53:51;;;;;;;;;;;;;;;16.57;54.63;100617.59;4997522;28;1124;-57
2023/07/22 01:56:16;;;;;;;;;;;;;;;16.52;54.63;100620.31;4995854;28;1323;-56
2023/07/22 01:58:42;;;;;;;;;;;;;;;16.47;54.75;100612.13;4997343;28;1148;-56
2023/07/22 02:01:08;;;;;;;;;;;;;;;16.52;54.65;100607.44;4995987;28;1114;-56
2023/07/22 02:03:33;;;;;;;;;;;;;;;16.52;54.89;100609.34;4997063;28;1136;-57
2023/07/22 02:06:05;;;;;;;;;;;;;;;16.53;54.50;100608.25;4995262;28;1583;-58
2023/07/22 02:08:30;;;;;;;;;;;;;;;16.44;54.94;100621.72;4996970;28;1972;-57
2023/07/22 02:11:03;;;;;;;;;;;;;;;16.45;54.91;100617.03;4996763;28;1076;-57
2023/07/22 02:13:30;;;;;;;;;;;;;;;16.48;54.78;100622.81;4996940;28;1052;-57
2023/07/22 02:15:55;;;;;;;;;;;;;;;16.43;54.82;100628.31;4996944;28;1119;-57
2023/07/22 02:18:21;;;;;;;;;;;;;;;16.48;54.68;100636.53;4996509;28;1056;-57
2023/07/22 02:20:46;;;;;;;;;;;;;;;16.42;54.79;100641.22;4996321;28;1087;-57
2023/07/22 02:23:12;;;;;;;;;;;;;;;16.41;54.87;100630.47;4997059;28;1059;-57
2023/07/22 02:25:37;;;;;;;;;;;;;;;16.47;54.71;100643.13;4995391;28;1084;-57
2023/07/22 02:28:03;;;;;;;;;;;;;;;16.48;54.76;100641.19;4994859;28;1910;-57
2023/07/22 02:30:29;;;;;;;;;;;;;;;16.38;54.88;100620.06;4996259;28;1012;-58
2023/07/22 02:32:54;;;;;;;;;;;;;;;16.38;54.71;100625.56;4996902;28;1052;-57
2023/07/22 02:35:20;;;;;;;;;;;;;;;16.39;54.57;100628.03;4996492;28;1038;-57
2023/07/22 02:37:45;;;;;;;;;;;;;;;16.42;54.67;100626.66;4996355;28;1159;-58
2023/07/22 02:40:11;;;;;;;;;;;;;;;16.46;54.62;100637.91;4996804;28;1025;-58
2023/07/22 02:42:37;;;;;;;;;;;;;;;16.46;54.36;100649.69;4996652;28;1025;-57
2023/07/22 02:45:03;;;;;;;;;;;;;;;16.46;54.58;100646.97;4996760;28;1111;-58
2023/07/22 02:47:29;;;;;;;;;;;;;;;16.41;54.36;100641.47;4986683;28;1902;-56
2023/07/22 02:49:54;;;;;;;;;;;;;;;16.42;54.45;100643.13;4996596;28;1400;-56
2023/07/22 02:52:20;;;;;;;;;;;;;;;16.36;54.69;100647.78;4996526;28;1055;-62
2023/07/22 02:55:03;;;;;;;;;;;;;;;16.43;54.62;100640.09;4996211;28;1142;-62
2023/07/22 02:57:29;;;;;;;;;;;;;;;16.42;54.37;100638.47;4996075;28;1401;-62
2023/07/22 02:59:54;;;;;;;;;;;;;;;16.33;54.45;100642.84;4992310;28;1974;-59
2023/07/22 03:02:20;;;;;;;;;;;;;;;16.40;54.47;100634.34;4994685;28;1934;-60
2023/07/22 03:04:45;;;;;;;;;;;;;;;16.31;54.63;100638.75;4995573;28;2221;-60
2023/07/22 03:07:11;;;;;;;;;;;;;;;16.41;54.44;100653.28;4995720;28;2271;-60
2023/07/22 03:09:36;;;;;;;;;;;;;;;16.31;54.73;100657.94;5002537;28;1984;-61
2023/07/22 03:12:02;;;;;;;;;;;;;;;16.37;54.70;100671.41;4995400;28;1936;-63
2023/07/22 03:14:28;;;;;;;;;;;;;;;16.36;54.47;100679.91;4996013;28;1770;-62
2023/07/22 03:16:53;;;;;;;;;;;;;;;16.30;54.54;100679.09;4996015;28;1332;-63
2023/07/22 03:19:19;;;;;;;;;;;;;;;16.36;54.56;100694.44;4995491;28;1411;-63
2023/07/22 03:21:44;;;;;;;;;;;;;;;16.58;55.44;100707.06;4995853;28;1403;-62
2023/07/22 03:24:10;;;;;;;;;;;;;;;17.68;56.85;100723.84;5011700;28;1446;-63
2023/07/22 03:26:36;;;;;;;;;;;;;;;17.18;56.92;100714.69;4987758;28;1391;-62
2023/07/22 03:29:01;;;;;;;;;;;;;;;16.97;56.81;100714.75;4990310;28;1910;-63
2023/07/22 03:31:27;;;;;;;;;;;;;;;16.77;56.60;100710.91;5001102;28;1383;-63
2023/07/22 03:33:52;;;;;;;;;;;;;;;16.78;55.82;100695.25;5005293;28;1242;-62
2023/07/22 03:36:18;;;;;;;;;;;;;;;16.73;55.65;100685.09;4999191;28;1356;-62
2023/07/22 03:38:43;;;;;;;;;;;;;;;16.73;55.48;100673.28;4999323;28;1089;-63
2023/07/22 03:41:09;;;;;;;;;;;;;;;16.75;55.13;100666.41;4999351;28;1190;-62
2023/07/22 03:43:34;;;;;;;;;;;;;;;16.60;55.29;100674.66;4998844;28;2171;-62
2023/07/22 03:46:00;;;;;;;;;;;;;;;16.66;55.21;100675.47;4999282;28;1211;-62
2023/07/22 03:48:25;;;;;;;;;;;;;;;16.65;55.03;100690.31;4998127;28;1981;-63
2023/07/22 03:50:51;;;;;;;;;;;;;;;16.62;55.00;100686.22;4999017;28;1120;-61
2023/07/22 03:53:16;;;;;;;;;;;;;;;16.62;56.28;100686.22;4997138;28;1608;-56
2023/07/22 03:55:42;;;;;;;;;;;;;;;16.73;56.32;100690.59;4993533;28;1525;-61
2023/07/22 03:58:07;;;;;;;;;;;;;;;16.67;55.96;100693.63;5011163;28;1344;-59
2023/07/22 04:00:33;;;;;;;;;;;;;;;16.65;55.76;100679.31;4988539;28;1061;-58
2023/07/22 04:02:58;;;;;;;;;;;;;;;16.64;55.43;100678.50;4994557;28;1064;-59
2023/07/22 04:05:24;;;;;;;;;;;;;;;16.63;55.30;100685.09;4997204;28;1212;-66
2023/07/22 04:07:50;;;;;;;;;;;;;;;16.65;54.98;100677.41;4996984;28;1983;-68
2023/07/22 04:10:15;;;;;;;;;;;;;;;16.60;54.86;100667.25;4994715;28;1092;-61
2023/07/22 04:12:41;;;;;;;;;;;;;;;16.51;55.20;100666.19;4998218;28;1001;-59
2023/07/22 04:15:06;;;;;;;;;;;;;;;16.53;55.09;100674.13;4997848;28;2096;-61
2023/07/22 04:17:32;;;;;;;;;;;;;;;16.56;55.12;100679.06;4998185;28;980;-65
2023/07/22 04:19:57;;;;;;;;;;;;;;;16.58;54.91;100674.13;4998330;28;1156;-63
2023/07/22 04:22:23;;;;;;;;;;;;;;;16.52;55.17;100669.72;4999240;28;1187;-62
2023/07/22 04:24:48;;;;;;;;;;;;;;;16.57;54.88;100673.28;4985745;28;1084;-61
2023/07/22 04:27:15;;;;;;;;;;;;;;;16.54;54.92;100660.13;4998580;28;988;-66
2023/07/22 04:29:41;;;;;;;;;;;;;;;16.53;54.72;100666.72;4998263;28;1906;-65
2023/07/22 04:32:08;;;;;;;;;;;;;;;16.50;54.93;100663.72;4998362;28;881;-65
2023/07/22 04:34:34;;;;;;;;;;;;;;;16.52;54.93;100669.72;4998260;28;1088;-64
2023/07/22 04:36:59;;;;;;;;;;;;;;;16.52;54.95;100665.09;4990622;28;1025;-66
2023/07/22 04:39:25;;;;;;;;;;;;;;;16.51;54.81;100662.59;5002618;28;1076;-62
2023/07/22 04:41:50;;;;;;;;;;;;;;;16.54;54.97;100667.56;4991220;28;1013;-63
2023/07/22 04:44:17;;;;;;;;;;;;;;;16.57;54.63;100678.78;4992755;28;1783;-65
2023/07/22 04:46:42;;;;;;;;;;;;;;;16.50;54.86;100681.00;4998247;28;1219;-65
2023/07/22 04:49:08;;;;;;;;;;;;;;;16.55;54.58;100681.00;4992545;28;1917;-66
2023/07/22 04:51:34;;;;;;;;;;;;;;;17.12;55.62;100683.66;4978974;28;1116;-59
2023/07/22 04:53:59;;;;;;;;;;;;;;;16.39;55.76;100680.16;4997413;28;1083;-59
2023/07/22 04:56:25;;;;;;;;;;;;;;;16.37;53.79;100690.59;4998027;28;988;-60
2023/07/22 04:58:50;;;;;;;;;;;;;;;16.22;53.12;100685.13;4997797;28;1080;-59
2023/07/22 05:01:16;;;;;;;;;;;;;;;16.36;51.74;100688.13;4985728;28;1005;-59
2023/07/22 05:03:41;;;;;;;;;;;;;;;16.23;51.55;100678.53;4984359;28;1111;-60
2023/07/22 05:06:08;;;;;;;;;;;;;;;16.19;51.11;100682.91;4996777;28;1124;-57
2023/07/22 05:08:34;;;;;;;;;;;;;;;16.21;50.56;100680.72;4996745;28;1983;-59
2023/07/22 05:10:59;;;;;;;;;;;;;;;16.28;50.21;100680.44;4990622;28;993;-56
2023/07/22 05:13:25;;;;;;;;;;;;;;;16.25;49.97;100690.03;4997645;28;1977;-57
2023/07/22 05:15:50;;;;;;;;;;;;;;;16.18;50.21;100689.50;4997862;28;1151;-58
2023/07/22 05:18:16;;;;;;;;;;;;;;;16.17;50.12;100696.06;4984437;28;1156;-58
2023/07/22 05:20:42;;;;;;;;;;;;;;;16.26;49.63;100688.97;4997317;28;1390;-57
2023/07/22 05:23:07;;;;;;;;;;;;;;;16.34;49.03;100685.66;4997476;28;1151;-56
2023/07/22 05:25:32;;;;;;;;;;;;;;;16.34;49.30;100690.31;4997804;28;1345;-60
2023/07/22 05:27:58;;;;;;;;;;;;;;;16.34;49.23;100677.44;4996710;28;1914;-57
2023/07/22 05:30:23;;;;;;;;;;;;;;;16.26;49.18;100661.53;4997684;28;1144;-57
2023/07/22 05:32:51;;;;;;;;;;;;;;;16.32;49.08;100660.41;4992185;28;1093;-58
2023/07/22 05:35:17;;;;;;;;;;;;;;;16.37;49.06;100676.06;4978320;28;1187;-60
2023/07/22 05:37:42;;;;;;;;;;;;;;;16.35;48.79;100675.50;4990452;28;1057;-60
2023/07/22 05:40:08;;;;;;;;;;;;;;;16.40;48.54;100676.31;4996929;28;1064;-60
2023/07/22 05:42:34;;;;;;;;;;;;;;;16.48;48.40;100663.16;4996208;28;1250;-62
2023/07/22 05:45:00;;;;;;;;;;;;;;;16.45;48.54;100663.69;4991278;28;1850;-59
2023/07/22 05:47:25;;;;;;;;;;;;;;;16.41;48.36;100667.00;4988726;28;1211;-63
2023/07/22 05:49:51;;;;;;;;;;;;;;;16.42;48.48;100660.44;4984001;28;1965;-62
2023/07/22 05:52:16;;;;;;;;;;;;;;;16.43;48.47;100667.53;4994078;28;1037;-63
2023/07/22 05:54:42;;;;;;;;;;;;;;;16.41;48.68;100663.41;5010046;28;1103;-61
2023/07/22 05:57:08;;;;;;;;;;;;;;;16.40;48.36;100661.78;4996008;28;957;-61
2023/07/22 05:59:35;;;;;;;;;;;;;;;16.49;48.36;100653.81;4996624;28;1087;-60
2023/07/22 06:02:02;;;;;;;;;;;;;;;16.52;48.27;100648.63;4996822;28;1012;-59
2023/07/22 06:04:28;;;;;;;;;;;;;;;16.47;48.26;100651.34;4990757;28;1084;-59
2023/07/22 06:06:53;;;;;;;;;;;;;;;16.49;48.49;100638.16;4982210;28;1009;-62
2023/07/22 06:09:20;;;;;;;;;;;;;;;16.58;48.53;100624.72;4989666;28;1906;-61
2023/07/22 06:11:45;;;;;;;;;;;;;;;16.54;48.30;100615.41;4980134;28;1184;-61
2023/07/22 06:14:11;;;;;;;;;;;;;;;16.53;48.49;100613.75;4996468;28;2100;-61
2023/07/22 06:16:37;;;;;;;;;;;;;;;16.64;48.08;100618.13;4985189;28;998;-62
2023/07/22 06:19:03;;;;;;;;;;;;;;;16.57;48.60;100612.09;4995440;28;1171;-62
2023/07/22 06:21:29;;;;;;;;;;;;;;;16.69;48.04;100609.88;4995648;28;1281;-63
2023/07/22 06:23:54;;;;;;;;;;;;;;;16.61;48.29;100602.19;4992629;28;1060;-61
2023/07/22 06:26:20;;;;;;;;;;;;;;;16.61;48.41;100602.19;4996537;28;1019;-63
2023/07/22 06:28:45;;;;;;;;;;;;;;;16.63;48.42;100596.44;4996068;28;1968;-62
2023/07/22 06:31:11;;;;;;;;;;;;;;;16.65;48.27;100597.81;4996764;28;963;-63
2023/07/22 06:33:36;;;;;;;;;;;;;;;16.77;48.18;100606.56;4994290;28;1199;-61
2023/07/22 06:36:02;;;;;;;;;;;;;;;16.68;48.34;100619.19;4996750;28;1156;-62
2023/07/22 06:38:28;;;;;;;;;;;;;;;16.69;48.15;100609.88;4996217;28;1144;-65
2023/07/22 06:40:54;;;;;;;;;;;;;;;16.72;48.17;100614.00;4995723;28;976;-60
2023/07/22 06:43:20;;;;;;;;;;;;;;;16.69;48.09;100612.63;4995613;28;2491;-60
2023/07/22 06:45:45;;;;;;;;;;;;;;;16.74;48.27;100618.06;4996257;28;893;-64
2023/07/22 06:48:11;;;;;;;;;;;;;;;16.76;48.16;100618.63;4993959;28;1906;-61
2023/07/22 06:50:36;;;;;;;;;;;;;;;16.77;48.40;100620.28;4996343;28;1036;-60
2023/07/22 06:53:02;;;;;;;;;;;;;;;16.80;48.30;100626.31;4995581;28;1068;-61
2023/07/22 06:55:27;;;;;;;;;;;;;;;16.74;48.40;100623.56;4992782;28;1201;-62
2023/07/22 06:57:55;;;;;;;;;;;;;;;16.81;48.17;100622.47;4996027;28;919;-61
2023/07/22 07:00:21;;;;;;;;;;;;;;;16.88;48.16;100629.34;4998842;28;1285;-60
2023/07/22 07:02:46;;;;;;;;;;;;;;;16.80;48.44;100616.13;4999911;28;1152;-60
2023/07/22 07:05:12;;;;;;;;;;;;;;;16.79;48.59;100619.16;5000044;28;998;-62
2023/07/22 07:07:39;;;;;;;;;;;;;;;16.80;48.46;100616.13;4999509;28;1910;-60
2023/07/22 07:10:05;;;;;;;;;;;;;;;16.87;48.20;100621.34;4999321;28;879;-63
2023/07/22 07:12:31;;;;;;;;;;;;;;;16.93;48.14;100615.59;4999935;28;1156;-64
2023/07/22 07:14:56;;;;;;;;;;;;;;;16.91;48.12;100617.81;4999721;28;2182;-61
2023/07/22 07:17:22;;;;;;;;;;;;;;;16.90;48.21;100605.19;4986128;28;961;-63
2023/07/22 07:19:47;;;;;;;;;;;;;;;16.87;48.46;100613.09;4999508;28;1187;-61
2023/07/22 07:22:13;;;;;;;;;;;;;;;16.96;48.32;100611.47;4995772;28;1045;-63
2023/07/22 07:24:38;;;;;;;;;;;;;;;17.00;48.05;100608.97;4999682;28;1112;-59
2023/07/22 07:27:04;;;;;;;;;;;;;;;17.04;48.12;100619.13;4982056;28;1100;-60
2023/07/22 07:29:29;;;;;;;;;;;;;;;17.01;48.12;100616.94;4999777;28;1910;-61
2023/07/22 07:31:55;;;;;;;;;;;;;;;16.96;48.08;100616.13;4999104;28;1171;-61
2023/07/22 07:34:20;;;;;;;;;;;;;;;17.05;48.13;100623.50;4999452;28;970;-59
2023/07/22 07:36:46;;;;;;;;;;;;;;;16.96;48.20;100616.97;4998796;28;1072;-63
2023/07/22 07:39:11;;;;;;;;;;;;;;;17.00;48.22;100615.31;4998040;28;1152;-61
2023/07/22 07:41:37;;;;;;;;;;;;;;;17.03;48.13;100609.25;4980493;28;997;-62
2023/07/22 07:44:03;;;;;;;;;;;;;;;17.02;48.33;100607.59;4995164;28;1945;-59
2023/07/22 07:46:29;;;;;;;;;;;;;;;17.08;48.32;100609.22;4999305;28;1080;-59
2023/07/22 07:49:01;;;;;;;;;;;;;;;17.08;48.07;100594.66;4986579;28;1979;-63
2023/07/22 07:51:27;;;;;;;;;;;;;;;17.10;48.09;100592.47;4999448;28;1116;-60
2023/07/22 07:53:52;;;;;;;;;;;;;;;17.14;47.88;100598.19;4999038;28;1125;-60
2023/07/22 07:56:18;;;;;;;;;;;;;;;17.03;48.20;100592.75;4999239;28;1147;-60
2023/07/22 07:58:43;;;;;;;;;;;;;;;17.14;48.04;100587.22;4998578;28;891;-60
2023/07/22 08:01:09;;;;;;;;;;;;;;;17.23;47.68;100580.84;4998324;28;1088;-59
2023/07/22 08:03:35;;;;;;;;;;;;;;;17.13;48.31;100580.09;4999017;28;1069;-58
2023/07/22 08:06:01;;;;;;;;;;;;;;;17.16;48.32;100585.00;4992282;28;1060;-62
2023/07/22 08:08:26;;;;;;;;;;;;;;;17.14;48.08;100585.31;4992433;28;1902;-63
2023/07/22 08:11:05;;;;;;;;;;;;;;;17.13;48.46;100574.59;4997794;28;1183;-62
2023/07/22 08:13:33;;;;;;;;;;;;;;;17.15;48.30;100575.13;4998501;28;1831;-65
2023/07/22 08:15:59;;;;;;;;;;;;;;;17.16;48.28;100571.28;4990459;28;1056;-59
2023/07/22 08:18:24;;;;;;;;;;;;;;;17.10;48.51;100571.28;4988704;28;1013;-59
2023/07/22 08:20:53;;;;;;;;;;;;;;;17.18;48.36;100572.66;4998211;28;992;-62
2023/07/22 08:23:21;;;;;;;;;;;;;;;17.14;48.57;100568.81;4998295;28;1039;-60
2023/07/22 08:25:47;;;;;;;;;;;;;;;17.26;48.35;100568.47;4998590;28;1084;-60
2023/07/22 08:28:13;;;;;;;;;;;;;;;17.28;48.27;100566.28;4990135;28;1977;-60
2023/07/22 08:30:40;;;;;;;;;;;;;;;17.31;48.39;100560.19;4998673;28;997;-60
2023/07/22 08:33:09;;;;;;;;;;;;;;;17.36;48.24;100567.59;4998029;28;972;-60
2023/07/22 08:35:35;;;;;;;;;;;;;;;17.29;48.50;100565.16;4998461;28;1009;-61
2023/07/22 08:38:02;;;;;;;;;;;;;;;17.34;48.27;100562.38;4988070;28;1056;-58
2023/07/22 08:40:28;;;;;;;;;;;;;;;17.31;48.38;100556.66;4997802;28;1115;-59
2023/07/22 08:42:53;;;;;;;;;;;;;;;17.34;48.27;100559.63;4998004;28;1387;-61
2023/07/22 08:45:19;;;;;;;;;;;;;;;17.35;48.32;100561.28;4997834;28;2193;-62
2023/07/22 08:47:45;;;;;;;;;;;;;;;17.43;48.13;100570.84;4985255;28;1902;-62
2023/07/22 08:50:11;;;;;;;;;;;;;;;17.36;48.29;100568.44;4998235;28;1025;-62
2023/07/22 08:52:36;;;;;;;;;;;;;;;17.36;48.21;100562.94;5008946;28;1076;-61
2023/07/22 08:55:02;;;;;;;;;;;;;;;17.44;48.09;100569.75;4987141;28;1108;-63
2023/07/22 08:57:29;;;;;;;;;;;;;;;17.36;48.31;100562.09;4997921;28;1128;-61
2023/07/22 08:59:54;;;;;;;;;;;;;;;17.40;48.53;100564.00;4995144;28;978;-61
2023/07/22 09:02:19;;;;;;;;;;;;;;;17.44;48.23;100559.56;4997824;28;1012;-63
2023/07/22 09:04:45;;;;;;;;;;;;;;;17.51;48.06;100559.25;4981006;28;1100;-64
2023/07/22 09:07:11;;;;;;;;;;;;;;;17.52;48.17;100558.16;4988469;28;1044;-60
2023/07/22 09:09:37;;;;;;;;;;;;;;;17.45;48.28;100552.97;5001561;28;1911;-62
2023/07/22 09:12:02;;;;;;;;;;;;;;;17.49;48.56;100544.13;4997686;28;1364;-61
2023/07/22 09:14:28;;;;;;;;;;;;;;;17.46;48.29;100540.06;4997643;28;1814;-58
2023/07/22 09:16:53;;;;;;;;;;;;;;;17.56;48.31;100539.16;4996216;28;1020;-64
2023/07/22 09:19:19;;;;;;;;;;;;;;;17.53;48.48;100542.47;4997591;28;1065;-62
2023/07/22 09:21:44;;;;;;;;;;;;;;;17.54;48.38;100536.69;4994863;28;1103;-62
2023/07/22 09:24:20;;;;;;;;;;;;;;;17.53;48.12;100528.72;4996869;28;1068;-62
2023/07/22 09:26:45;;;;;;;;;;;;;;;17.60;48.23;100532.00;4980604;28;1040;-58
2023/07/22 09:29:11;;;;;;;;;;;;;;;17.54;48.30;100524.88;4988673;28;1910;-61
2023/07/22 09:31:44;;;;;;;;;;;;;;;17.57;48.16;100538.03;4996672;28;1183;-66
2023/07/22 09:34:10;;;;;;;;;;;;;;;17.60;48.23;100529.25;5003990;28;1645;-57
2023/07/22 09:36:55;;;;;;;;;;;;;;;17.57;48.27;100529.78;4984630;28;1075;-58
2023/07/22 09:39:21;;;;;;;;;;;;;;;17.61;48.27;100525.34;4996160;28;1110;-59
2023/07/22 09:41:46;;;;;;;;;;;;;;;17.58;48.37;100514.94;4989688;28;1009;-61
2023/07/22 09:44:12;;;;;;;;;;;;;;;17.64;48.38;100511.03;4990916;28;1799;-58
2023/07/22 09:46:37;;;;;;;;;;;;;;;17.67;48.35;100513.22;4996179;28;1036;-60
2023/07/22 09:49:07;;;;;;;;;;;;;;;17.67;48.39;100515.97;4995679;28;1992;-57
2023/07/22 09:51:36;;;;;;;;;;;;;;;17.59;48.83;100513.84;4997023;28;1254;-56
2023/07/22 09:54:02;;;;;;;;;;;;;;;17.57;48.64;100508.63;4996418;28;1281;-58
2023/07/22 09:56:28;;;;;;;;;;;;;;;17.70;48.61;100507.16;4996687;28;1325;-57
2023/07/22 09:58:53;;;;;;;;;;;;;;;17.75;48.37;100511.78;4996028;28;1008;-57
2023/07/22 10:01:19;;;;;;;;;;;;;;;17.63;48.51;100498.41;4996061;28;1345;-57
2023/07/22 10:03:45;;;;;;;;;;;;;;;17.69;48.44;100500.00;4996616;28;1336;-58
2023/07/22 10:06:10;;;;;;;;;;;;;;;17.70;48.54;100504.41;4996976;28;1365;-57
2023/07/22 10:08:36;;;;;;;;;;;;;;;17.70;48.51;100496.16;4995237;28;1915;-57
2023/07/22 10:11:03;;;;;;;;;;;;;;;17.74;48.44;100496.38;4996378;28;1317;-56
2023/07/22 10:13:28;;;;;;;;;;;;;;;17.78;48.39;100487.28;4996450;28;1974;-57
2023/07/22 10:15:54;;;;;;;;;;;;;;;17.81;48.40;100490.56;4996689;28;1061;-58
2023/07/22 10:18:20;;;;;;;;;;;;;;;17.77;48.31;100493.88;5002218;28;1126;-58
2023/07/22 10:20:46;;;;;;;;;;;;;;;17.81;48.22;100496.06;4993325;28;980;-58
2023/07/22 10:23:13;;;;;;;;;;;;;;;17.79;48.24;100494.44;4977867;28;858;-58
2023/07/22 10:25:39;;;;;;;;;;;;;;;17.79;48.22;100491.69;5010975;28;988;-58
2023/07/22 10:28:05;;;;;;;;;;;;;;;17.71;48.77;100486.81;4995822;28;1981;-58
2023/07/22 10:30:31;;;;;;;;;;;;;;;17.84;48.42;100481.72;4996349;28;1061;-58
2023/07/22 10:32:56;;;;;;;;;;;;;;;17.84;48.33;100478.97;5001662;28;1175;-57
2023/07/22 10:35:31;;;;;;;;;;;;;;;17.80;48.40;100473.25;4993359;28;1103;-58
2023/07/22 10:38:09;;;;;;;;;;;;;;;17.88;48.18;100469.88;4987668;28;1092;-58
2023/07/22 10:40:45;;;;;;;;;;;;;;;17.79;48.51;100486.19;4995540;28;1203;-57
2023/07/22 10:43:10;;;;;;;;;;;;;;;17.83;48.47;100491.91;4985473;28;1881;-58
2023/07/22 10:45:52;;;;;;;;;;;;;;;17.76;48.80;100475.72;4996465;28;1116;-57
2023/07/22 10:48:17;;;;;;;;;;;;;;;17.93;48.47;100482.78;4995668;28;1910;-57
2023/07/22 10:50:49;;;;;;;;;;;;;;;17.97;48.11;100489.34;4996540;28;1156;-58
2023/07/22 10:53:42;;;;;;;;;;;;;;;17.92;48.33;100490.22;4996349;28;1043;-57
2023/07/22 10:56:20;;;;;;;;;;;;;;;17.85;48.69;100480.63;4995535;28;1631;-57
2023/07/22 10:58:48;;;;;;;;;;;;;;;17.98;48.22;100485.47;4996183;28;1016;-57
2023/07/22 11:01:26;;;;;;;;;;;;;;;17.88;48.42;100504.78;4994026;28;1044;-57
2023/07/22 11:04:03;;;;;;;;;;;;;;;17.92;48.33;100494.88;4987172;28;1036;-58
2023/07/22 11:06:29;;;;;;;;;;;;;;;17.94;48.54;100489.91;4996583;28;1152;-58
2023/07/22 11:08:55;;;;;;;;;;;;;;;17.97;48.32;100485.78;4996087;28;1914;-58
2023/07/22 11:11:20;;;;;;;;;;;;;;;18.00;48.50;100486.00;4994800;28;946;-58
2023/07/22 11:13:46;;;;;;;;;;;;;;;18.00;48.17;100479.69;4996037;28;1974;-57
2023/07/22 11:16:12;;;;;;;;;;;;;;;17.96;48.42;100479.44;4996301;28;1089;-58
2023/07/22 11:18:38;;;;;;;;;;;;;;;17.85;48.59;100486.13;4996185;28;1063;-57
2023/07/22 11:21:07;;;;;;;;;;;;;;;17.98;48.08;100484.66;5001756;28;1044;-57
2023/07/22 11:23:33;;;;;;;;;;;;;;;17.86;48.51;100485.00;4995382;28;1078;-58
2023/07/22 11:25:59;;;;;;;;;;;;;;;18.02;48.15;100472.78;4996098;28;1171;-57
2023/07/22 11:28:24;;;;;;;;;;;;;;;17.98;48.16;100476.38;4996117;28;1975;-58
2023/07/22 11:30:51;;;;;;;;;;;;;;;17.98;48.38;100479.97;5001698;28;1037;-58
2023/07/22 11:33:16;;;;;;;;;;;;;;;18.03;48.23;100476.34;4997814;28;1076;-59
2023/07/22 11:35:45;;;;;;;;;;;;;;;17.89;48.60;100481.69;4995444;28;1187;-62
2023/07/22 11:38:13;;;;;;;;;;;;;;;18.02;48.20;100467.28;4994433;28;1087;-62
2023/07/22 11:40:39;;;;;;;;;;;;;;;17.98;48.08;100474.47;4995658;28;1286;-64
2023/07/22 11:43:04;;;;;;;;;;;;;;;18.02;48.03;100474.69;4995794;28;1285;-65
2023/07/22 11:45:30;;;;;;;;;;;;;;;17.95;48.24;100472.31;4996821;28;2332;-65
2023/07/22 11:47:56;;;;;;;;;;;;;;;17.96;48.16;100484.94;4999148;28;1911;-65
2023/07/22 11:50:33;;;;;;;;;;;;;;;17.95;48.05;100491.56;4998145;28;1333;-66
2023/07/22 11:52:59;;;;;;;;;;;;;;;18.00;48.01;100485.19;4998027;28;1373;-66
2023/07/22 11:55:24;;;;;;;;;;;;;;;17.99;47.89;100478.84;5014214;28;1320;-65
2023/07/22 11:57:53;;;;;;;;;;;;;;;17.98;47.87;100462.63;4998984;28;1265;-65
2023/07/22 12:00:19;;;;;;;;;;;;;;;17.99;48.11;100458.78;4997659;28;1099;-65
2023/07/22 12:02:44;;;;;;;;;;;;;;;18.04;48.19;100459.53;4998992;28;1250;-64
2023/07/22 12:05:10;;;;;;;;;;;;;;;18.04;48.10;100459.53;4998068;28;1344;-66
2023/07/22 12:07:36;;;;;;;;;;;;;;;18.11;47.88;100457.25;4999456;28;1321;-65
2023/07/22 12:10:05;;;;;;;;;;;;;;;18.12;47.87;100455.34;4998634;28;1972;-65
2023/07/22 12:12:36;;;;;;;;;;;;;;;18.04;48.11;100461.50;4995282;28;1024;-64
2023/07/22 12:15:17;;;;;;;;;;;;;;;17.97;48.30;100456.31;4999185;28;2108;-65
2023/07/22 12:17:55;;;;;;;;;;;;;;;18.01;48.10;100468.38;4999027;28;1353;-65
2023/07/22 12:20:27;;;;;;;;;;;;;;;18.03;48.13;100470.84;4999000;28;1337;-66
2023/07/22 12:22:53;;;;;;;;;;;;;;;17.93;48.26;100449.75;4997828;28;1353;-65
2023/07/22 12:25:19;;;;;;;;;;;;;;;18.14;48.04;100461.38;4998099;28;1080;-66
2023/07/22 12:27:44;;;;;;;;;;;;;;;18.07;47.97;100458.16;4998931;28;2031;-65
2023/07/22 12:30:10;;;;;;;;;;;;;;;18.04;47.92;100451.28;4998511;28;1403;-63
2023/07/22 12:32:35;;;;;;;;;;;;;;;18.01;48.14;100454.63;4998396;28;1286;-64
2023/07/22 12:35:02;;;;;;;;;;;;;;;18.12;48.05;100458.91;4998093;28;1337;-64
2023/07/22 12:37:28;;;;;;;;;;;;;;;18.13;47.74;100451.47;4998733;28;1325;-65
2023/07/22 12:39:53;;;;;;;;;;;;;;;18.07;47.89;100453.47;4998170;28;1345;-64
2023/07/22 12:42:19;;;;;;;;;;;;;;;18.10;48.08;100444.66;4997782;28;1104;-64
2023/07/22 12:44:45;;;;;;;;;;;;;;;18.05;48.20;100446.63;5012831;28;1917;-63